createdAt,value
2019-03-20T00:01:10.367Z,35.83
2019-03-20T00:03:40.868Z,35.00
2019-03-20T00:06:11.542Z,35.47
2019-03-20T00:08:42.246Z,34.20
2019-03-20T00:11:12.869Z,32.87
2019-03-20T00:13:43.677Z,33.17
2019-03-20T00:16:14.436Z,33.03
2019-03-20T00:18:44.956Z,31.97
2019-03-20T00:21:15.622Z,33.53
2019-03-20T00:23:46.839Z,34.27
2019-03-20T00:26:17.379Z,35.33
2019-03-20T00:28:47.963Z,31.67
2019-03-20T00:31:18.538Z,33.27
2019-03-20T00:33:49.269Z,33.97
2019-03-20T00:36:20.105Z,36.07
2019-03-20T00:38:50.570Z,37.53
2019-03-20T00:41:22.259Z,36.57
2019-03-20T00:43:52.716Z,35.80
2019-03-20T00:46:23.190Z,40.07
2019-03-20T00:48:53.667Z,41.77
2019-03-20T00:51:24.225Z,41.60
2019-03-20T00:53:55.745Z,41.77
2019-03-20T00:56:26.308Z,42.07
2019-03-20T00:58:57.009Z,41.70
2019-03-20T01:01:27.751Z,44.40
2019-03-20T01:03:58.135Z,41.30
2019-03-20T01:06:29.099Z,42.53
2019-03-20T01:08:59.678Z,41.43
2019-03-20T01:11:31.000Z,41.97
2019-03-20T01:14:01.725Z,41.60
2019-03-20T01:16:32.277Z,40.97
2019-03-20T01:19:03.252Z,39.47
2019-03-20T01:21:37.485Z,42.73
2019-03-20T01:24:08.210Z,42.53
2019-03-20T01:26:38.763Z,39.40
2019-03-20T01:29:11.668Z,40.07
2019-03-20T01:31:42.295Z,38.70
2019-03-20T01:34:12.915Z,38.80
2019-03-20T01:36:45.909Z,39.67
2019-03-20T01:39:18.486Z,38.50
2019-03-20T01:41:49.001Z,39.43
2019-03-20T01:44:19.531Z,39.33
2019-03-20T01:46:50.299Z,41.87
2019-03-20T01:49:20.907Z,41.47
2019-03-20T01:51:51.644Z,40.50
2019-03-20T01:54:22.089Z,41.30
2019-03-20T01:56:52.596Z,38.57
2019-03-20T01:59:23.126Z,40.73
2019-03-20T02:01:55.673Z,39.50
2019-03-20T02:04:26.222Z,41.80
2019-03-20T02:06:56.791Z,39.40
2019-03-20T02:09:27.257Z,40.50
2019-03-20T02:11:57.761Z,43.33
2019-03-20T02:14:28.202Z,42.33
2019-03-20T02:16:58.773Z,44.30
2019-03-20T02:19:29.202Z,43.93
2019-03-20T02:22:00.059Z,49.60
2019-03-20T02:24:30.661Z,47.30
2019-03-20T02:27:01.707Z,46.00
2019-03-20T02:29:32.343Z,45.73
2019-03-20T02:32:03.169Z,39.80
2019-03-20T02:34:34.065Z,39.80
2019-03-20T02:37:04.747Z,37.70
2019-03-20T02:39:35.310Z,38.27
2019-03-20T02:42:06.178Z,39.70
2019-03-20T02:44:36.969Z,37.60
2019-03-20T02:47:07.411Z,36.97
2019-03-20T02:49:38.003Z,37.83
2019-03-20T02:52:08.566Z,41.20
2019-03-20T02:54:39.271Z,39.03
2019-03-20T02:57:10.008Z,38.80
2019-03-20T02:59:40.535Z,41.03
2019-03-20T03:02:12.296Z,39.00
2019-03-20T03:04:43.023Z,42.93
2019-03-20T03:07:13.759Z,49.70
2019-03-20T03:09:47.668Z,52.20
2019-03-20T03:12:18.393Z,51.10
2019-03-20T03:14:48.838Z,49.47
2019-03-20T03:17:20.887Z,51.27
2019-03-20T03:19:51.597Z,51.03
2019-03-20T03:22:22.157Z,49.17
2019-03-20T03:24:53.507Z,44.63
2019-03-20T03:27:24.069Z,45.87
2019-03-20T03:29:54.694Z,42.53
2019-03-20T03:32:25.287Z,45.43
2019-03-20T03:34:56.130Z,46.80
2019-03-20T03:37:27.988Z,46.27
2019-03-20T03:39:58.955Z,47.33
2019-03-20T03:42:29.665Z,47.27
2019-03-20T03:45:00.586Z,48.93
2019-03-20T03:47:31.329Z,49.37
2019-03-20T03:50:02.019Z,48.37
2019-03-20T03:52:32.489Z,52.83
2019-03-20T03:55:03.176Z,54.73
2019-03-20T03:57:33.922Z,53.67
2019-03-20T04:00:05.796Z,57.03
2019-03-20T04:02:36.321Z,56.40
2019-03-20T04:05:07.400Z,60.33
2019-03-20T04:07:38.014Z,59.40
2019-03-20T04:10:10.410Z,59.00
2019-03-20T04:12:41.139Z,62.57
2019-03-20T04:15:12.668Z,62.47
2019-03-20T04:17:43.329Z,63.20
2019-03-20T04:20:14.466Z,69.97
2019-03-20T04:22:45.363Z,67.43
2019-03-20T04:25:16.448Z,64.20
2019-03-20T04:27:47.106Z,60.40
2019-03-20T04:30:18.256Z,59.03
2019-03-20T04:32:48.934Z,57.27
2019-03-20T04:35:19.578Z,58.73
2019-03-20T04:37:50.186Z,58.30
2019-03-20T04:40:20.951Z,56.97
2019-03-20T04:42:51.685Z,56.50
2019-03-20T04:45:22.416Z,56.40
2019-03-20T04:47:52.853Z,57.30
2019-03-20T04:50:23.668Z,54.17
2019-03-20T04:52:54.637Z,51.77
2019-03-20T04:55:25.566Z,54.57
2019-03-20T04:57:56.064Z,53.43
2019-03-20T05:00:26.897Z,56.47
2019-03-20T05:02:57.598Z,57.87
2019-03-20T05:05:28.588Z,57.80
2019-03-20T05:07:59.361Z,54.73
2019-03-20T05:10:29.928Z,54.73
2019-03-20T05:13:00.630Z,55.97
2019-03-20T05:15:31.247Z,55.23
2019-03-20T05:18:02.183Z,56.30
2019-03-20T05:20:32.875Z,54.73
2019-03-20T05:23:03.707Z,54.83
2019-03-20T05:25:34.386Z,54.93
2019-03-20T05:28:04.956Z,55.23
2019-03-20T05:30:36.014Z,52.80
2019-03-20T05:33:06.842Z,53.47
2019-03-20T05:35:38.734Z,53.27
2019-03-20T05:38:09.763Z,53.73
2019-03-20T05:40:40.616Z,52.93
2019-03-20T05:43:15.091Z,48.17
2019-03-20T05:45:45.845Z,48.00
2019-03-20T05:48:18.217Z,44.10
2019-03-20T05:50:49.050Z,43.73
2019-03-20T05:53:20.828Z,46.83
2019-03-20T05:55:52.607Z,48.40
2019-03-20T05:58:23.726Z,47.20
2019-03-20T06:00:54.359Z,44.70
2019-03-20T06:03:30.715Z,45.33
2019-03-20T06:06:01.545Z,45.17
2019-03-20T06:08:32.387Z,46.63
2019-03-20T06:11:03.055Z,46.50
2019-03-20T06:13:33.743Z,43.00
2019-03-20T06:16:06.711Z,43.13
2019-03-20T06:18:37.359Z,42.40
2019-03-20T06:21:08.113Z,42.67
2019-03-20T06:23:38.897Z,42.27
2019-03-20T06:26:09.505Z,41.67
2019-03-20T06:28:40.208Z,42.30
2019-03-20T06:31:14.005Z,40.30
2019-03-20T06:33:44.758Z,38.10
2019-03-20T06:36:15.587Z,35.40
2019-03-20T06:38:46.555Z,38.13
2019-03-20T06:41:17.438Z,33.07
2019-03-20T06:43:48.195Z,34.10
2019-03-20T06:46:25.523Z,29.77
2019-03-20T06:48:56.201Z,31.07
2019-03-20T06:51:27.151Z,31.43
2019-03-20T06:53:57.875Z,28.40
2019-03-20T06:56:28.616Z,31.80
2019-03-20T06:59:37.600Z,25.63
2019-03-20T07:02:08.392Z,28.93
2019-03-20T07:05:04.064Z,26.03
2019-03-20T07:07:43.899Z,23.03
2019-03-20T07:10:22.458Z,25.83
2019-03-20T07:12:53.215Z,23.70
2019-03-20T07:15:24.043Z,23.33
2019-03-20T07:17:54.971Z,23.07
2019-03-20T07:20:25.596Z,21.03
2019-03-20T07:22:56.166Z,15.80
2019-03-20T07:25:26.800Z,14.57
2019-03-20T07:28:00.461Z,11.83
2019-03-20T07:30:32.786Z,12.70
2019-03-20T07:33:03.363Z,10.07
2019-03-20T07:35:34.094Z,8.30
2019-03-20T07:38:04.958Z,11.13
2019-03-20T07:40:36.989Z,13.07
2019-03-20T07:43:09.094Z,11.73
2019-03-20T07:45:40.266Z,11.60
2019-03-20T07:48:21.499Z,9.67
2019-03-20T07:50:43.361Z,8.87
2019-03-20T07:53:15.125Z,9.60
2019-03-20T07:55:45.808Z,7.30
2019-03-20T07:58:16.817Z,9.50
2019-03-20T08:00:47.518Z,9.17
2019-03-20T08:03:18.312Z,8.87
2019-03-20T08:05:49.040Z,6.27
2019-03-20T08:08:19.727Z,6.30
2019-03-20T08:10:50.590Z,5.80
2019-03-20T08:13:21.246Z,6.50
2019-03-20T08:15:52.078Z,5.67
2019-03-20T08:18:22.595Z,4.73
2019-03-20T08:20:53.260Z,4.77
2019-03-20T08:23:23.951Z,6.53
2019-03-20T08:25:54.470Z,5.83
2019-03-20T08:28:24.940Z,5.67
2019-03-20T08:30:55.688Z,5.17
2019-03-20T08:33:28.539Z,4.43
2019-03-20T08:35:59.296Z,3.70
2019-03-20T08:38:29.839Z,5.33
2019-03-20T08:41:00.511Z,4.40
2019-03-20T08:43:31.443Z,2.90
2019-03-20T08:46:02.034Z,2.30
2019-03-20T08:48:34.028Z,2.10
2019-03-20T08:51:04.708Z,2.53
2019-03-20T08:53:35.368Z,1.73
2019-03-20T08:56:06.043Z,1.60
2019-03-20T08:58:36.613Z,2.20
2019-03-20T09:01:07.280Z,1.70
2019-03-20T09:03:37.800Z,1.83
2019-03-20T09:06:08.495Z,1.70
2019-03-20T09:08:39.129Z,1.63
2019-03-20T09:11:09.672Z,1.90
2019-03-20T09:13:40.186Z,2.00
2019-03-20T09:16:11.137Z,1.40
2019-03-20T09:18:41.665Z,1.97
2019-03-20T09:21:12.137Z,1.90
2019-03-20T09:23:42.711Z,1.80
2019-03-20T09:26:13.558Z,2.60
2019-03-20T09:28:44.309Z,2.43
2019-03-20T09:31:15.082Z,2.57
2019-03-20T09:33:45.769Z,2.23
2019-03-20T09:36:17.691Z,2.60
2019-03-20T09:38:48.372Z,1.93
2019-03-20T09:41:19.096Z,2.30
2019-03-20T09:43:49.614Z,2.43
2019-03-20T09:46:21.366Z,2.27
2019-03-20T09:48:52.008Z,2.47
2019-03-20T09:51:24.226Z,2.70
2019-03-20T09:53:54.744Z,2.63
2019-03-20T09:56:25.182Z,2.13
2019-03-20T09:58:55.803Z,2.50
2019-03-20T10:01:26.427Z,2.57
2019-03-20T10:03:57.153Z,2.30
2019-03-20T10:06:30.108Z,1.47
2019-03-20T10:09:01.883Z,1.90
2019-03-20T10:11:33.769Z,2.20
2019-03-20T10:14:04.604Z,1.23
2019-03-20T10:16:35.505Z,2.30
2019-03-20T10:19:06.229Z,1.97
2019-03-20T10:21:36.707Z,2.40
2019-03-20T10:24:07.513Z,1.87
2019-03-20T10:26:38.188Z,2.20
2019-03-20T10:29:08.870Z,2.00
2019-03-20T10:31:39.479Z,1.63
2019-03-20T10:34:10.231Z,2.20
2019-03-20T10:36:40.920Z,2.27
2019-03-20T10:39:11.689Z,2.03
2019-03-20T10:41:42.418Z,1.90
2019-03-20T10:44:13.157Z,2.10
2019-03-20T10:46:45.196Z,1.90
2019-03-20T10:49:16.178Z,2.93
2019-03-20T10:51:46.848Z,2.30
2019-03-20T10:54:17.633Z,2.10
2019-03-20T10:56:48.383Z,3.13
2019-03-20T10:59:19.045Z,1.80
2019-03-20T11:01:49.839Z,2.90
2019-03-20T11:04:20.638Z,3.03
2019-03-20T11:06:51.551Z,3.30
2019-03-20T11:09:22.220Z,2.87
2019-03-20T11:11:53.013Z,3.00
2019-03-20T11:14:23.921Z,2.57
2019-03-20T11:16:54.603Z,2.70
2019-03-20T11:19:25.302Z,3.00
2019-03-20T11:21:56.161Z,3.70
2019-03-20T11:24:26.807Z,3.30
2019-03-20T11:26:57.424Z,3.83
2019-03-20T11:29:28.253Z,3.87
2019-03-20T11:31:59.204Z,3.93
2019-03-20T11:34:29.805Z,3.60
2019-03-20T11:37:00.641Z,3.60
2019-03-20T11:39:31.345Z,3.87
2019-03-20T11:42:02.063Z,3.90
2019-03-20T11:44:32.772Z,3.80
2019-03-20T11:47:03.599Z,3.60
2019-03-20T11:49:34.356Z,3.37
2019-03-20T11:52:06.334Z,3.90
2019-03-20T11:54:41.657Z,4.23
2019-03-20T11:57:12.576Z,4.03
2019-03-20T11:59:43.234Z,4.17
2019-03-20T12:02:13.678Z,4.20
2019-03-20T12:04:44.421Z,3.60
2019-03-20T12:07:16.105Z,4.03
2019-03-20T12:09:46.834Z,4.47
2019-03-20T12:12:17.585Z,4.10
2019-03-20T12:14:48.349Z,3.97
2019-03-20T12:17:20.220Z,4.53
2019-03-20T12:19:51.238Z,5.47
2019-03-20T12:22:21.980Z,4.57
2019-03-20T12:24:52.847Z,4.83
2019-03-20T12:27:23.813Z,4.07
2019-03-20T12:29:57.801Z,5.47
2019-03-20T12:32:28.511Z,4.83
2019-03-20T12:34:59.217Z,4.50
2019-03-20T12:37:29.985Z,4.40
2019-03-20T12:40:00.776Z,4.63
2019-03-20T12:42:31.656Z,4.80
2019-03-20T12:45:02.498Z,4.60
2019-03-20T12:47:33.424Z,5.30
2019-03-20T12:50:07.140Z,4.60
2019-03-20T12:52:37.881Z,5.13
2019-03-20T12:55:10.752Z,4.70
2019-03-20T12:57:41.526Z,5.07
2019-03-20T13:00:15.033Z,5.47
2019-03-20T13:02:45.820Z,5.20
2019-03-20T13:05:16.620Z,4.83
2019-03-20T13:07:47.598Z,4.90
2019-03-20T13:10:19.463Z,4.27
2019-03-20T13:12:50.206Z,4.63
2019-03-20T13:15:22.169Z,4.87
2019-03-20T13:17:53.316Z,4.57
2019-03-20T13:20:25.236Z,4.53
2019-03-20T13:23:01.912Z,5.07
2019-03-20T13:25:32.647Z,3.87
2019-03-20T13:28:03.415Z,4.97
2019-03-20T13:30:37.223Z,3.10
2019-03-20T13:33:07.832Z,4.37
2019-03-20T13:35:38.579Z,4.40
2019-03-20T13:38:09.461Z,4.63
2019-03-20T13:40:40.302Z,5.93
2019-03-20T13:43:11.089Z,4.63
2019-03-20T13:45:41.850Z,3.17
2019-03-20T13:48:12.891Z,4.70
2019-03-20T13:50:43.638Z,3.83
2019-03-20T13:53:15.469Z,4.17
2019-03-20T13:55:47.534Z,4.50
2019-03-20T13:58:18.370Z,4.23
2019-03-20T14:00:48.920Z,3.70
2019-03-20T14:03:19.634Z,3.90
2019-03-20T14:05:50.322Z,4.40
2019-03-20T14:08:21.095Z,4.20
2019-03-20T14:10:51.961Z,4.97
2019-03-20T14:13:22.676Z,5.30
2019-03-20T14:15:53.502Z,5.17
2019-03-20T14:18:24.088Z,4.77
2019-03-20T14:20:54.735Z,5.70
2019-03-20T14:23:25.393Z,5.53
2019-03-20T14:25:56.006Z,5.53
2019-03-20T14:28:26.556Z,5.90
2019-03-20T14:30:57.396Z,5.43
2019-03-20T14:33:28.186Z,5.53
2019-03-20T14:35:59.538Z,6.67
2019-03-20T14:38:30.217Z,7.27
2019-03-20T14:41:00.939Z,5.40
2019-03-20T14:43:31.597Z,6.80
2019-03-20T14:46:03.951Z,6.43
2019-03-20T14:48:34.763Z,4.80
2019-03-20T14:51:05.421Z,5.60
2019-03-20T14:53:36.242Z,5.90
2019-03-20T14:56:08.988Z,7.57
2019-03-20T14:58:39.826Z,6.37
2019-03-20T15:01:10.605Z,5.73
2019-03-20T15:03:41.298Z,5.77
2019-03-20T15:06:11.883Z,5.93
2019-03-20T15:08:42.707Z,5.97
2019-03-20T15:11:13.494Z,5.30
2019-03-20T15:13:44.184Z,6.13
2019-03-20T15:16:14.882Z,5.90
2019-03-20T15:18:45.547Z,5.23
2019-03-20T15:21:16.165Z,6.17
2019-03-20T15:23:46.692Z,6.37
2019-03-20T15:26:17.549Z,6.90
2019-03-20T15:28:48.283Z,6.90
2019-03-20T15:31:19.089Z,6.07
2019-03-20T15:33:49.644Z,5.73
2019-03-20T15:36:20.188Z,5.43
2019-03-20T15:38:50.757Z,6.27
2019-03-20T15:41:21.360Z,6.77
2019-03-20T15:44:01.947Z,6.37
2019-03-20T15:46:24.547Z,6.70
2019-03-20T15:48:55.518Z,7.17
2019-03-20T15:51:26.246Z,7.23
2019-03-20T15:53:57.256Z,6.70
2019-03-20T15:56:28.160Z,6.90
2019-03-20T15:58:58.927Z,7.63
2019-03-20T16:01:29.877Z,7.07
2019-03-20T16:04:00.816Z,8.03
2019-03-20T16:06:31.648Z,7.50
2019-03-20T16:09:07.765Z,7.43
2019-03-20T16:11:39.554Z,7.60
2019-03-20T16:14:10.506Z,7.27
2019-03-20T16:16:40.975Z,7.00
2019-03-20T16:19:11.808Z,7.90
2019-03-20T16:21:42.891Z,7.80
2019-03-20T16:24:16.360Z,7.47
2019-03-20T16:26:48.620Z,7.37
2019-03-20T16:29:19.428Z,7.60
2019-03-20T16:31:50.577Z,7.33
2019-03-20T16:34:21.374Z,7.80
2019-03-20T16:36:53.107Z,7.70
2019-03-20T16:39:23.839Z,8.03
2019-03-20T16:41:54.398Z,8.93
2019-03-20T16:44:26.094Z,8.77
2019-03-20T16:46:57.101Z,9.13
2019-03-20T16:49:29.469Z,10.33
2019-03-20T16:52:00.102Z,10.17
2019-03-20T16:54:30.965Z,11.80
2019-03-20T16:57:01.675Z,11.93
2019-03-20T16:59:33.427Z,10.80
2019-03-20T17:02:04.238Z,12.27
2019-03-20T17:04:36.158Z,10.77
2019-03-20T17:07:07.256Z,11.37
2019-03-20T17:09:38.174Z,11.43
2019-03-20T17:12:09.023Z,11.73
2019-03-20T17:14:41.730Z,11.97
2019-03-20T17:17:13.805Z,10.63
2019-03-20T17:19:44.536Z,9.93
2019-03-20T17:22:15.375Z,10.90
2019-03-20T17:24:46.306Z,10.20
2019-03-20T17:27:17.728Z,10.57
2019-03-20T17:29:48.628Z,10.70
2019-03-20T17:32:19.797Z,10.10
2019-03-20T17:34:50.822Z,10.20
2019-03-20T17:37:21.679Z,10.50
2019-03-20T17:39:52.578Z,12.67
2019-03-20T17:42:23.283Z,12.47
2019-03-20T17:44:53.962Z,12.17
2019-03-20T17:47:24.646Z,12.87
2019-03-20T17:49:55.418Z,13.53
2019-03-20T17:52:27.205Z,13.70
2019-03-20T17:54:57.906Z,14.87
2019-03-20T17:57:29.284Z,13.03
2019-03-20T18:00:00.318Z,13.90
2019-03-20T18:02:31.465Z,13.93
2019-03-20T18:05:02.791Z,13.53
2019-03-20T18:07:33.747Z,13.20
2019-03-20T18:10:08.393Z,13.33
2019-03-20T18:12:39.463Z,13.63
2019-03-20T18:15:11.928Z,13.10
2019-03-20T18:17:43.342Z,14.43
2019-03-20T18:20:14.318Z,14.17
2019-03-20T18:22:45.875Z,13.10
2019-03-20T18:25:16.775Z,13.03
2019-03-20T18:27:52.058Z,14.23
2019-03-20T18:30:25.977Z,13.13
2019-03-20T18:32:57.418Z,14.00
2019-03-20T18:35:28.244Z,13.20
2019-03-20T18:37:58.926Z,13.77
2019-03-20T18:40:30.012Z,12.40
2019-03-20T18:43:00.871Z,13.70
2019-03-20T18:45:35.476Z,12.53
2019-03-20T18:48:11.547Z,12.87
2019-03-20T18:50:42.326Z,13.17
2019-03-20T18:53:13.108Z,14.13
2019-03-20T18:55:50.837Z,13.60
2019-03-20T18:58:22.357Z,12.33
2019-03-20T19:00:53.432Z,14.50
2019-03-20T19:03:24.197Z,12.43
2019-03-20T19:06:03.641Z,13.60
2019-03-20T19:08:34.929Z,11.87
2019-03-20T19:11:05.646Z,11.67
2019-03-20T19:13:36.601Z,11.80
2019-03-20T19:16:07.564Z,11.27
2019-03-20T19:18:38.443Z,10.30
2019-03-20T19:21:13.585Z,10.67
2019-03-20T19:23:44.643Z,11.10
2019-03-20T19:26:15.575Z,11.70
2019-03-20T19:28:46.470Z,13.37
2019-03-20T19:31:17.249Z,14.03
2019-03-20T19:33:48.209Z,13.07
2019-03-20T19:36:20.864Z,12.70
2019-03-20T19:38:55.803Z,12.80
2019-03-20T19:41:37.395Z,12.60
2019-03-20T19:44:09.789Z,13.00
2019-03-20T19:46:41.154Z,16.07
2019-03-20T19:49:11.729Z,19.57
2019-03-20T19:51:42.491Z,22.20
2019-03-20T19:54:15.502Z,21.83
2019-03-20T19:56:49.755Z,16.03
2019-03-20T19:59:22.079Z,15.07
2019-03-20T20:01:56.022Z,13.13
2019-03-20T20:04:30.461Z,13.70
2019-03-20T20:07:01.356Z,13.47
2019-03-20T20:09:39.303Z,14.03
2019-03-20T20:12:11.491Z,13.87
2019-03-20T20:14:45.023Z,13.47
2019-03-20T20:17:15.829Z,14.37
2019-03-20T20:19:46.551Z,14.40
2019-03-20T20:22:19.474Z,14.20
2019-03-20T20:24:50.893Z,13.47
2019-03-20T20:27:22.259Z,13.57
2019-03-20T20:29:53.249Z,14.10
2019-03-20T20:32:24.010Z,14.83
2019-03-20T20:34:54.751Z,14.33
2019-03-20T20:37:25.381Z,14.30
2019-03-20T20:39:56.126Z,14.40
2019-03-20T20:42:26.700Z,15.40
2019-03-20T20:44:57.133Z,15.37
2019-03-20T20:47:27.730Z,15.10
2019-03-20T20:49:58.647Z,14.63
2019-03-20T20:52:30.606Z,14.67
2019-03-20T20:55:01.569Z,14.83
2019-03-20T20:57:32.334Z,14.87
2019-03-20T21:00:03.032Z,14.97
2019-03-20T21:02:33.734Z,15.73
2019-03-20T21:05:04.832Z,15.93
2019-03-20T21:07:35.561Z,16.60
2019-03-20T21:10:06.755Z,15.77
2019-03-20T21:12:55.102Z,15.07
2019-03-20T21:15:20.511Z,16.60
2019-03-20T21:18:16.790Z,15.07
2019-03-20T21:20:48.136Z,17.13
2019-03-20T21:23:56.953Z,14.67
2019-03-20T21:26:28.024Z,16.27
2019-03-20T21:29:37.048Z,16.03
2019-03-20T21:32:19.397Z,15.57
2019-03-20T21:35:28.159Z,15.37
2019-03-20T21:38:08.557Z,15.30
2019-03-20T21:40:53.149Z,15.77
2019-03-20T21:43:48.723Z,14.87
2019-03-20T21:46:46.058Z,17.40
2019-03-20T21:49:17.169Z,16.10
2019-03-20T21:51:48.411Z,15.23
2019-03-20T21:54:57.396Z,16.57
2019-03-20T21:57:58.353Z,16.70
2019-03-20T22:01:07.308Z,21.50
2019-03-20T22:03:38.554Z,20.63
2019-03-20T22:06:49.435Z,16.70
2019-03-20T22:09:28.086Z,16.87
2019-03-20T22:12:36.863Z,15.17
2019-03-20T22:15:22.440Z,20.43
2019-03-20T22:18:19.478Z,19.50
2019-03-20T22:21:05.814Z,17.87
2019-03-20T22:24:02.639Z,14.80
2019-03-20T22:27:11.753Z,13.57
2019-03-20T22:29:42.864Z,12.90
2019-03-20T22:32:51.876Z,13.13
2019-03-20T22:35:50.548Z,13.17
2019-03-20T22:38:53.749Z,11.90
2019-03-20T22:41:51.120Z,13.07
2019-03-20T22:44:22.245Z,12.40
2019-03-20T22:47:31.075Z,12.30
2019-03-20T22:50:30.018Z,13.60
2019-03-20T22:53:28.169Z,12.67
2019-03-20T22:56:09.069Z,12.57
2019-03-20T22:58:46.783Z,12.30
2019-03-20T23:01:22.181Z,12.30
2019-03-20T23:03:58.478Z,11.53
2019-03-20T23:06:29.578Z,11.53
2019-03-20T23:09:00.742Z,11.23
2019-03-20T23:11:33.587Z,10.87
2019-03-20T23:14:04.908Z,11.70
2019-03-20T23:16:35.923Z,11.30
2019-03-20T23:19:07.337Z,10.27
2019-03-20T23:21:38.678Z,10.43
2019-03-20T23:24:10.015Z,10.70
2019-03-20T23:26:41.028Z,9.83
2019-03-20T23:29:12.333Z,9.73
2019-03-20T23:31:43.398Z,9.90
2019-03-20T23:34:14.605Z,8.83
2019-03-20T23:36:45.596Z,9.60
2019-03-20T23:39:16.787Z,9.97
2019-03-20T23:41:48.030Z,8.70
2019-03-20T23:44:21.496Z,8.83
2019-03-20T23:46:52.970Z,9.33
2019-03-20T23:49:24.436Z,9.13
2019-03-20T23:51:55.668Z,9.07
2019-03-20T23:54:31.973Z,9.20
2019-03-20T23:57:03.078Z,8.83
2019-03-20T23:59:34.327Z,8.87
